Preview of NWS' New Version of Forecast
This preview is not operational and should not be used for support decisions.

Terminal Aerodrome Forecast (TAF)

Issued by National Weather Service (NWS)

                            
000
FTUS42 KMFL 180537
TAFMIA
TAF
KMIA 180537Z 1806/1912 35005KT P6SM SCT010 BKN035 OVC050
     FM181700 02008KT P6SM VCSH SCT010 BKN035 OVC050
     FM190100 03010KT P6SM VCSH SCT008 BKN015 OVC025
     FM190600 04010KT P6SM VCSH SCT008 OVC010=